sensor_id;sensor_type;location;lat;lon;timestamp;temperature;humidity
26575;DHT22;67165;50.256;10.978;2023-05-19T00:00:56;10.20;98.00
26575;DHT22;67165;50.256;10.978;2023-05-19T00:03:22;10.20;98.00
26575;DHT22;67165;50.256;10.978;2023-05-19T00:05:48;10.20;98.00
26575;DHT22;67165;50.256;10.978;2023-05-19T00:08:18;10.20;98.00
26575;DHT22;67165;50.256;10.978;2023-05-19T00:10:45;10.10;98.00
26575;DHT22;67165;50.256;10.978;2023-05-19T00:13:11;10.10;98.00
26575;DHT22;67165;50.256;10.978;2023-05-19T00:15:36;10.10;98.00
26575;DHT22;67165;50.256;10.978;2023-05-19T00:18:02;10.10;98.00
26575;DHT22;67165;50.256;10.978;2023-05-19T00:20:31;10.10;98.00
26575;DHT22;67165;50.256;10.978;2023-05-19T00:22:56;10.20;98.00
26575;DHT22;67165;50.256;10.978;2023-05-19T00:25:22;10.10;98.00
26575;DHT22;67165;50.256;10.978;2023-05-19T00:27:48;10.10;98.00
26575;DHT22;67165;50.256;10.978;2023-05-19T00:30:13;10.10;98.00
26575;DHT22;67165;50.256;10.978;2023-05-19T00:32:39;10.20;98.00
26575;DHT22;67165;50.256;10.978;2023-05-19T00:35:05;10.10;98.00
26575;DHT22;67165;50.256;10.978;2023-05-19T00:37:31;10.10;98.00
26575;DHT22;67165;50.256;10.978;2023-05-19T00:39:56;10.10;98.00
26575;DHT22;67165;50.256;10.978;2023-05-19T00:42:24;10.10;98.00
26575;DHT22;67165;50.256;10.978;2023-05-19T00:44:50;10.10;98.00
26575;DHT22;67165;50.256;10.978;2023-05-19T00:47:16;10.10;98.00
26575;DHT22;67165;50.256;10.978;2023-05-19T00:49:41;10.10;98.00
26575;DHT22;67165;50.256;10.978;2023-05-19T00:52:07;10.10;98.00
26575;DHT22;67165;50.256;10.978;2023-05-19T00:54:33;10.10;98.00
26575;DHT22;67165;50.256;10.978;2023-05-19T00:56:59;10.10;98.00
26575;DHT22;67165;50.256;10.978;2023-05-19T00:59:25;10.10;98.00
26575;DHT22;67165;50.256;10.978;2023-05-19T01:01:52;10.20;98.00
26575;DHT22;67165;50.256;10.978;2023-05-19T01:04:18;10.10;98.00
26575;DHT22;67165;50.256;10.978;2023-05-19T01:06:49;10.10;98.00
26575;DHT22;67165;50.256;10.978;2023-05-19T01:09:20;10.10;98.00
26575;DHT22;67165;50.256;10.978;2023-05-19T01:11:47;10.10;98.00
26575;DHT22;67165;50.256;10.978;2023-05-19T01:14:13;10.10;98.00
26575;DHT22;67165;50.256;10.978;2023-05-19T01:19:30;10.10;98.00
26575;DHT22;67165;50.256;10.978;2023-05-19T01:31:09;10.20;98.00
26575;DHT22;67165;50.256;10.978;2023-05-19T01:33:37;10.20;98.00
26575;DHT22;67165;50.256;10.978;2023-05-19T01:36:05;10.20;98.00
26575;DHT22;67165;50.256;10.978;2023-05-19T01:38:33;10.30;98.00
26575;DHT22;67165;50.256;10.978;2023-05-19T01:40:59;10.30;98.00
26575;DHT22;67165;50.256;10.978;2023-05-19T01:43:28;10.20;98.00
26575;DHT22;67165;50.256;10.978;2023-05-19T01:45:54;10.30;98.00
26575;DHT22;67165;50.256;10.978;2023-05-19T01:48:23;10.40;98.00
26575;DHT22;67165;50.256;10.978;2023-05-19T01:50:49;10.50;98.00
26575;DHT22;67165;50.256;10.978;2023-05-19T01:53:15;10.50;98.00
26575;DHT22;67165;50.256;10.978;2023-05-19T01:55:46;10.40;98.00
26575;DHT22;67165;50.256;10.978;2023-05-19T02:01:29;10.50;98.00
26575;DHT22;67165;50.256;10.978;2023-05-19T02:11:46;10.20;98.00
26575;DHT22;67165;50.256;10.978;2023-05-19T02:14:19;10.20;98.00
26575;DHT22;67165;50.256;10.978;2023-05-19T02:16:47;10.10;98.00
26575;DHT22;67165;50.256;10.978;2023-05-19T02:19:30;10.00;98.00
26575;DHT22;67165;50.256;10.978;2023-05-19T02:21:57;10.00;98.00
26575;DHT22;67165;50.256;10.978;2023-05-19T02:24:23;9.90;98.00
26575;DHT22;67165;50.256;10.978;2023-05-19T02:26:50;9.90;98.00
26575;DHT22;67165;50.256;10.978;2023-05-19T02:29:16;9.90;98.00
26575;DHT22;67165;50.256;10.978;2023-05-19T02:31:42;9.80;98.00
26575;DHT22;67165;50.256;10.978;2023-05-19T02:34:08;9.70;98.00
26575;DHT22;67165;50.256;10.978;2023-05-19T02:36:34;9.70;98.00
26575;DHT22;67165;50.256;10.978;2023-05-19T02:39:02;9.60;98.00
26575;DHT22;67165;50.256;10.978;2023-05-19T02:41:27;9.60;98.00
26575;DHT22;67165;50.256;10.978;2023-05-19T02:43:53;9.50;98.00
26575;DHT22;67165;50.256;10.978;2023-05-19T02:46:19;9.40;98.00
26575;DHT22;67165;50.256;10.978;2023-05-19T02:48:44;9.40;98.00
26575;DHT22;67165;50.256;10.978;2023-05-19T02:51:10;9.50;98.00
26575;DHT22;67165;50.256;10.978;2023-05-19T02:53:36;9.50;98.00
26575;DHT22;67165;50.256;10.978;2023-05-19T02:56:02;9.50;98.00
26575;DHT22;67165;50.256;10.978;2023-05-19T02:58:27;9.50;98.00
26575;DHT22;67165;50.256;10.978;2023-05-19T03:00:54;9.50;98.00
26575;DHT22;67165;50.256;10.978;2023-05-19T03:03:20;9.50;98.00
26575;DHT22;67165;50.256;10.978;2023-05-19T03:05:46;9.50;98.00
26575;DHT22;67165;50.256;10.978;2023-05-19T03:08:12;9.60;98.00
26575;DHT22;67165;50.256;10.978;2023-05-19T03:10:37;9.50;98.00
26575;DHT22;67165;50.256;10.978;2023-05-19T03:13:03;9.50;98.00
26575;DHT22;67165;50.256;10.978;2023-05-19T03:15:29;9.40;98.00
26575;DHT22;67165;50.256;10.978;2023-05-19T03:17:55;9.40;98.00
26575;DHT22;67165;50.256;10.978;2023-05-19T03:20:21;9.40;98.00
26575;DHT22;67165;50.256;10.978;2023-05-19T03:22:46;9.30;98.00
26575;DHT22;67165;50.256;10.978;2023-05-19T03:25:12;9.20;98.00
26575;DHT22;67165;50.256;10.978;2023-05-19T03:27:41;9.30;98.00
26575;DHT22;67165;50.256;10.978;2023-05-19T03:30:07;9.30;98.00
26575;DHT22;67165;50.256;10.978;2023-05-19T03:32:33;9.30;98.00
26575;DHT22;67165;50.256;10.978;2023-05-19T03:35:02;9.30;98.00
26575;DHT22;67165;50.256;10.978;2023-05-19T03:37:29;9.20;98.00
26575;DHT22;67165;50.256;10.978;2023-05-19T03:39:54;9.20;98.00
26575;DHT22;67165;50.256;10.978;2023-05-19T03:42:20;9.20;98.00
26575;DHT22;67165;50.256;10.978;2023-05-19T03:44:45;9.10;98.00
26575;DHT22;67165;50.256;10.978;2023-05-19T03:47:11;9.10;98.00
26575;DHT22;67165;50.256;10.978;2023-05-19T03:49:37;9.00;98.00
26575;DHT22;67165;50.256;10.978;2023-05-19T03:52:02;9.00;98.00
26575;DHT22;67165;50.256;10.978;2023-05-19T03:54:28;8.90;98.00
26575;DHT22;67165;50.256;10.978;2023-05-19T03:56:54;8.90;98.00
26575;DHT22;67165;50.256;10.978;2023-05-19T03:59:19;8.90;98.00
26575;DHT22;67165;50.256;10.978;2023-05-19T04:01:45;8.90;98.00
26575;DHT22;67165;50.256;10.978;2023-05-19T04:04:12;8.90;98.00
26575;DHT22;67165;50.256;10.978;2023-05-19T04:06:37;9.00;98.00
26575;DHT22;67165;50.256;10.978;2023-05-19T04:09:10;9.10;98.00
26575;DHT22;67165;50.256;10.978;2023-05-19T04:11:36;9.10;98.00
26575;DHT22;67165;50.256;10.978;2023-05-19T04:14:04;9.20;98.00
26575;DHT22;67165;50.256;10.978;2023-05-19T04:16:29;9.20;98.00
26575;DHT22;67165;50.256;10.978;2023-05-19T04:18:55;9.30;98.00
26575;DHT22;67165;50.256;10.978;2023-05-19T04:21:21;9.40;98.00
26575;DHT22;67165;50.256;10.978;2023-05-19T04:23:47;9.60;98.00
26575;DHT22;67165;50.256;10.978;2023-05-19T04:26:13;9.60;98.00
26575;DHT22;67165;50.256;10.978;2023-05-19T04:28:39;9.80;98.00
26575;DHT22;67165;50.256;10.978;2023-05-19T04:31:07;9.80;98.00
26575;DHT22;67165;50.256;10.978;2023-05-19T04:33:37;9.90;98.00
26575;DHT22;67165;50.256;10.978;2023-05-19T04:36:03;9.90;98.00
26575;DHT22;67165;50.256;10.978;2023-05-19T04:38:33;10.00;98.00
26575;DHT22;67165;50.256;10.978;2023-05-19T04:40:59;10.10;98.00
26575;DHT22;67165;50.256;10.978;2023-05-19T04:43:26;10.10;98.00
26575;DHT22;67165;50.256;10.978;2023-05-19T04:45:52;10.20;98.00
26575;DHT22;67165;50.256;10.978;2023-05-19T04:48:19;10.40;98.00
26575;DHT22;67165;50.256;10.978;2023-05-19T04:50:46;10.50;98.00
26575;DHT22;67165;50.256;10.978;2023-05-19T04:53:16;10.60;98.00
26575;DHT22;67165;50.256;10.978;2023-05-19T04:55:43;10.70;98.00
26575;DHT22;67165;50.256;10.978;2023-05-19T04:58:09;10.80;98.00
26575;DHT22;67165;50.256;10.978;2023-05-19T05:00:38;10.90;98.00
26575;DHT22;67165;50.256;10.978;2023-05-19T05:03:04;11.20;98.00
26575;DHT22;67165;50.256;10.978;2023-05-19T05:05:31;11.50;98.00
26575;DHT22;67165;50.256;10.978;2023-05-19T05:07:57;11.90;98.00
26575;DHT22;67165;50.256;10.978;2023-05-19T05:10:23;12.60;98.00
26575;DHT22;67165;50.256;10.978;2023-05-19T05:12:49;13.00;98.00
26575;DHT22;67165;50.256;10.978;2023-05-19T05:15:16;13.20;98.00
26575;DHT22;67165;50.256;10.978;2023-05-19T05:17:42;13.40;98.00
26575;DHT22;67165;50.256;10.978;2023-05-19T05:20:08;13.60;98.00
26575;DHT22;67165;50.256;10.978;2023-05-19T05:22:36;13.70;98.00
26575;DHT22;67165;50.256;10.978;2023-05-19T05:25:03;13.70;98.00
26575;DHT22;67165;50.256;10.978;2023-05-19T05:27:29;13.70;98.00
26575;DHT22;67165;50.256;10.978;2023-05-19T05:29:55;13.50;98.00
26575;DHT22;67165;50.256;10.978;2023-05-19T05:32:21;13.50;98.00
26575;DHT22;67165;50.256;10.978;2023-05-19T05:34:47;13.20;98.00
26575;DHT22;67165;50.256;10.978;2023-05-19T05:37:13;13.50;98.00
26575;DHT22;67165;50.256;10.978;2023-05-19T05:39:39;13.60;98.00
26575;DHT22;67165;50.256;10.978;2023-05-19T05:42:05;13.60;98.00
26575;DHT22;67165;50.256;10.978;2023-05-19T05:44:33;13.70;98.00
26575;DHT22;67165;50.256;10.978;2023-05-19T05:47:01;13.80;98.00
26575;DHT22;67165;50.256;10.978;2023-05-19T05:49:26;13.50;98.00
26575;DHT22;67165;50.256;10.978;2023-05-19T05:51:52;13.30;98.00
26575;DHT22;67165;50.256;10.978;2023-05-19T05:54:21;13.10;98.00
26575;DHT22;67165;50.256;10.978;2023-05-19T05:56:47;13.00;98.00
26575;DHT22;67165;50.256;10.978;2023-05-19T05:59:14;13.10;98.00
26575;DHT22;67165;50.256;10.978;2023-05-19T06:01:40;13.20;98.00
26575;DHT22;67165;50.256;10.978;2023-05-19T06:04:06;13.30;98.00
26575;DHT22;67165;50.256;10.978;2023-05-19T06:06:32;13.40;98.00
26575;DHT22;67165;50.256;10.978;2023-05-19T06:08:58;13.60;98.00
26575;DHT22;67165;50.256;10.978;2023-05-19T06:11:23;13.90;98.00
26575;DHT22;67165;50.256;10.978;2023-05-19T06:13:49;14.00;98.00
26575;DHT22;67165;50.256;10.978;2023-05-19T06:16:15;13.90;98.00
26575;DHT22;67165;50.256;10.978;2023-05-19T06:18:41;14.10;98.00
26575;DHT22;67165;50.256;10.978;2023-05-19T06:21:06;14.30;98.00
26575;DHT22;67165;50.256;10.978;2023-05-19T06:23:35;14.20;98.00
26575;DHT22;67165;50.256;10.978;2023-05-19T06:26:00;14.30;98.00
26575;DHT22;67165;50.256;10.978;2023-05-19T06:28:26;14.60;98.00
26575;DHT22;67165;50.256;10.978;2023-05-19T06:30:52;14.80;98.00
26575;DHT22;67165;50.256;10.978;2023-05-19T06:33:17;14.90;98.00
26575;DHT22;67165;50.256;10.978;2023-05-19T06:35:43;15.00;98.00
26575;DHT22;67165;50.256;10.978;2023-05-19T06:38:08;15.20;98.00
26575;DHT22;67165;50.256;10.978;2023-05-19T06:40:35;15.40;98.00
26575;DHT22;67165;50.256;10.978;2023-05-19T06:43:01;15.70;98.00
26575;DHT22;67165;50.256;10.978;2023-05-19T06:45:27;15.50;98.00
26575;DHT22;67165;50.256;10.978;2023-05-19T06:47:53;15.60;98.00
26575;DHT22;67165;50.256;10.978;2023-05-19T06:50:19;15.70;98.00
26575;DHT22;67165;50.256;10.978;2023-05-19T06:52:44;15.60;98.00
26575;DHT22;67165;50.256;10.978;2023-05-19T06:55:11;15.50;98.00
26575;DHT22;67165;50.256;10.978;2023-05-19T06:57:37;15.30;98.00
26575;DHT22;67165;50.256;10.978;2023-05-19T07:00:03;15.00;98.00
26575;DHT22;67165;50.256;10.978;2023-05-19T07:02:30;15.20;98.00
26575;DHT22;67165;50.256;10.978;2023-05-19T07:04:55;15.50;98.00
26575;DHT22;67165;50.256;10.978;2023-05-19T07:07:21;15.90;98.00
26575;DHT22;67165;50.256;10.978;2023-05-19T07:09:47;15.90;98.00
26575;DHT22;67165;50.256;10.978;2023-05-19T07:12:13;16.40;98.00
26575;DHT22;67165;50.256;10.978;2023-05-19T07:14:38;16.50;98.00
26575;DHT22;67165;50.256;10.978;2023-05-19T07:17:04;17.00;98.00
26575;DHT22;67165;50.256;10.978;2023-05-19T07:19:30;17.00;96.90
26575;DHT22;67165;50.256;10.978;2023-05-19T07:21:55;17.20;96.30
26575;DHT22;67165;50.256;10.978;2023-05-19T07:24:21;17.60;97.00
26575;DHT22;67165;50.256;10.978;2023-05-19T07:26:47;17.90;95.90
26575;DHT22;67165;50.256;10.978;2023-05-19T07:29:13;18.20;95.50
26575;DHT22;67165;50.256;10.978;2023-05-19T07:31:38;18.30;95.40
26575;DHT22;67165;50.256;10.978;2023-05-19T07:34:04;18.20;94.30
26575;DHT22;67165;50.256;10.978;2023-05-19T07:36:30;18.00;94.50
26575;DHT22;67165;50.256;10.978;2023-05-19T07:38:56;17.40;96.10
26575;DHT22;67165;50.256;10.978;2023-05-19T07:41:21;17.30;96.40
26575;DHT22;67165;50.256;10.978;2023-05-19T07:43:48;17.40;96.50
26575;DHT22;67165;50.256;10.978;2023-05-19T07:46:13;17.50;97.50
26575;DHT22;67165;50.256;10.978;2023-05-19T07:48:39;17.60;96.10
26575;DHT22;67165;50.256;10.978;2023-05-19T07:51:05;17.50;95.10
26575;DHT22;67165;50.256;10.978;2023-05-19T07:53:35;17.70;95.60
26575;DHT22;67165;50.256;10.978;2023-05-19T07:56:00;17.60;93.40
26575;DHT22;67165;50.256;10.978;2023-05-19T07:58:26;17.50;94.20
26575;DHT22;67165;50.256;10.978;2023-05-19T08:00:51;17.70;93.90
26575;DHT22;67165;50.256;10.978;2023-05-19T08:03:17;17.60;93.60
26575;DHT22;67165;50.256;10.978;2023-05-19T08:05:43;17.70;93.10
26575;DHT22;67165;50.256;10.978;2023-05-19T08:08:09;17.90;94.00
26575;DHT22;67165;50.256;10.978;2023-05-19T08:10:36;18.00;92.70
26575;DHT22;67165;50.256;10.978;2023-05-19T08:13:01;18.10;91.40
26575;DHT22;67165;50.256;10.978;2023-05-19T08:15:27;18.10;91.50
26575;DHT22;67165;50.256;10.978;2023-05-19T08:17:53;18.20;91.70
26575;DHT22;67165;50.256;10.978;2023-05-19T08:20:18;18.20;91.40
26575;DHT22;67165;50.256;10.978;2023-05-19T08:22:44;18.30;90.80
26575;DHT22;67165;50.256;10.978;2023-05-19T08:25:10;18.00;91.20
26575;DHT22;67165;50.256;10.978;2023-05-19T08:27:36;18.00;92.70
26575;DHT22;67165;50.256;10.978;2023-05-19T08:30:01;18.00;90.50
26575;DHT22;67165;50.256;10.978;2023-05-19T08:32:27;17.90;91.50
26575;DHT22;67165;50.256;10.978;2023-05-19T08:34:53;17.80;92.70
26575;DHT22;67165;50.256;10.978;2023-05-19T08:37:18;17.90;93.10
26575;DHT22;67165;50.256;10.978;2023-05-19T08:39:44;18.20;93.20
26575;DHT22;67165;50.256;10.978;2023-05-19T08:42:10;18.70;93.80
26575;DHT22;67165;50.256;10.978;2023-05-19T08:44:37;19.20;89.20
26575;DHT22;67165;50.256;10.978;2023-05-19T08:47:04;19.00;89.20
26575;DHT22;67165;50.256;10.978;2023-05-19T08:49:32;18.80;89.40
26575;DHT22;67165;50.256;10.978;2023-05-19T08:52:08;18.80;89.40
26575;DHT22;67165;50.256;10.978;2023-05-19T08:54:45;18.50;90.80
26575;DHT22;67165;50.256;10.978;2023-05-19T08:57:13;19.00;92.20
26575;DHT22;67165;50.256;10.978;2023-05-19T08:59:40;19.00;88.60
26575;DHT22;67165;50.256;10.978;2023-05-19T09:02:08;19.10;91.20
26575;DHT22;67165;50.256;10.978;2023-05-19T09:04:35;19.00;88.70
26575;DHT22;67165;50.256;10.978;2023-05-19T09:07:02;19.20;89.10
26575;DHT22;67165;50.256;10.978;2023-05-19T09:09:29;18.80;87.60
26575;DHT22;67165;50.256;10.978;2023-05-19T09:11:55;18.50;88.90
26575;DHT22;67165;50.256;10.978;2023-05-19T09:14:21;18.60;88.40
26575;DHT22;67165;50.256;10.978;2023-05-19T09:16:47;17.90;88.20
26575;DHT22;67165;50.256;10.978;2023-05-19T09:19:15;17.90;89.10
26575;DHT22;67165;50.256;10.978;2023-05-19T09:21:41;18.20;90.80
26575;DHT22;67165;50.256;10.978;2023-05-19T09:24:08;18.40;89.30
26575;DHT22;67165;50.256;10.978;2023-05-19T09:26:38;18.50;90.60
26575;DHT22;67165;50.256;10.978;2023-05-19T09:29:15;18.70;88.70
26575;DHT22;67165;50.256;10.978;2023-05-19T09:31:54;18.70;88.50
26575;DHT22;67165;50.256;10.978;2023-05-19T09:34:20;18.90;89.70
26575;DHT22;67165;50.256;10.978;2023-05-19T09:36:51;18.50;90.80
26575;DHT22;67165;50.256;10.978;2023-05-19T09:39:19;18.50;89.70
26575;DHT22;67165;50.256;10.978;2023-05-19T09:41:45;18.40;90.00
26575;DHT22;67165;50.256;10.978;2023-05-19T09:44:22;18.30;91.90
26575;DHT22;67165;50.256;10.978;2023-05-19T09:46:52;18.00;90.30
26575;DHT22;67165;50.256;10.978;2023-05-19T09:49:21;18.00;91.40
26575;DHT22;67165;50.256;10.978;2023-05-19T09:51:58;18.40;94.20
26575;DHT22;67165;50.256;10.978;2023-05-19T09:54:25;18.60;91.20
26575;DHT22;67165;50.256;10.978;2023-05-19T09:57:03;18.60;93.20
26575;DHT22;67165;50.256;10.978;2023-05-19T09:59:30;18.30;92.80
26575;DHT22;67165;50.256;10.978;2023-05-19T10:01:57;18.30;93.50
26575;DHT22;67165;50.256;10.978;2023-05-19T10:04:25;18.60;93.10
26575;DHT22;67165;50.256;10.978;2023-05-19T10:06:54;18.80;93.40
26575;DHT22;67165;50.256;10.978;2023-05-19T10:09:24;19.00;92.90
26575;DHT22;67165;50.256;10.978;2023-05-19T10:11:57;18.70;92.10
26575;DHT22;67165;50.256;10.978;2023-05-19T10:14:24;18.90;93.70
26575;DHT22;67165;50.256;10.978;2023-05-19T10:16:50;18.30;93.20
26575;DHT22;67165;50.256;10.978;2023-05-19T10:19:23;18.10;92.90
26575;DHT22;67165;50.256;10.978;2023-05-19T10:21:50;18.00;94.60
26575;DHT22;67165;50.256;10.978;2023-05-19T10:24:16;18.00;92.50
26575;DHT22;67165;50.256;10.978;2023-05-19T10:26:45;18.00;93.90
26575;DHT22;67165;50.256;10.978;2023-05-19T10:29:16;18.00;94.40
26575;DHT22;67165;50.256;10.978;2023-05-19T10:31:45;18.00;94.40
26575;DHT22;67165;50.256;10.978;2023-05-19T10:37:03;18.10;93.40
26575;DHT22;67165;50.256;10.978;2023-05-19T10:39:33;18.20;93.40
26575;DHT22;67165;50.256;10.978;2023-05-19T10:42:14;18.50;92.50
26575;DHT22;67165;50.256;10.978;2023-05-19T10:47:07;18.50;93.40
26575;DHT22;67165;50.256;10.978;2023-05-19T10:49:36;18.70;93.20
26575;DHT22;67165;50.256;10.978;2023-05-19T10:52:02;18.70;93.10
26575;DHT22;67165;50.256;10.978;2023-05-19T10:54:41;18.80;91.60
26575;DHT22;67165;50.256;10.978;2023-05-19T10:57:14;18.50;91.50
26575;DHT22;67165;50.256;10.978;2023-05-19T10:59:40;18.50;92.00
26575;DHT22;67165;50.256;10.978;2023-05-19T11:02:07;18.60;91.50
26575;DHT22;67165;50.256;10.978;2023-05-19T11:04:47;18.70;92.20
26575;DHT22;67165;50.256;10.978;2023-05-19T11:07:21;18.70;91.20
26575;DHT22;67165;50.256;10.978;2023-05-19T11:09:52;19.20;91.20
26575;DHT22;67165;50.256;10.978;2023-05-19T11:12:21;19.50;89.70
26575;DHT22;67165;50.256;10.978;2023-05-19T11:14:47;19.60;88.00
26575;DHT22;67165;50.256;10.978;2023-05-19T11:17:18;19.50;87.40
26575;DHT22;67165;50.256;10.978;2023-05-19T11:19:56;19.40;89.30
26575;DHT22;67165;50.256;10.978;2023-05-19T11:22:26;19.40;88.90
26575;DHT22;67165;50.256;10.978;2023-05-19T11:24:54;19.40;88.00
26575;DHT22;67165;50.256;10.978;2023-05-19T11:29:53;19.30;89.30
26575;DHT22;67165;50.256;10.978;2023-05-19T11:32:21;19.40;88.30
26575;DHT22;67165;50.256;10.978;2023-05-19T11:34:48;19.50;88.10
26575;DHT22;67165;50.256;10.978;2023-05-19T11:37:14;19.60;88.90
26575;DHT22;67165;50.256;10.978;2023-05-19T11:39:40;18.90;87.40
26575;DHT22;67165;50.256;10.978;2023-05-19T11:42:09;18.70;88.90
26575;DHT22;67165;50.256;10.978;2023-05-19T11:44:36;18.80;88.80
26575;DHT22;67165;50.256;10.978;2023-05-19T11:47:03;18.90;87.90
26575;DHT22;67165;50.256;10.978;2023-05-19T11:49:29;18.90;89.20
26575;DHT22;67165;50.256;10.978;2023-05-19T11:51:55;19.10;89.00
26575;DHT22;67165;50.256;10.978;2023-05-19T11:54:29;19.30;88.80
26575;DHT22;67165;50.256;10.978;2023-05-19T11:56:55;19.10;88.10
26575;DHT22;67165;50.256;10.978;2023-05-19T11:59:31;19.30;90.70
26575;DHT22;67165;50.256;10.978;2023-05-19T12:02:22;19.40;88.40
26575;DHT22;67165;50.256;10.978;2023-05-19T12:04:47;19.20;87.30
26575;DHT22;67165;50.256;10.978;2023-05-19T12:07:15;19.20;88.00
26575;DHT22;67165;50.256;10.978;2023-05-19T12:09:46;19.10;87.70
26575;DHT22;67165;50.256;10.978;2023-05-19T12:12:17;19.20;87.20
26575;DHT22;67165;50.256;10.978;2023-05-19T12:14:45;19.20;88.20
26575;DHT22;67165;50.256;10.978;2023-05-19T12:17:16;19.10;88.10
26575;DHT22;67165;50.256;10.978;2023-05-19T12:19:46;19.00;87.10
26575;DHT22;67165;50.256;10.978;2023-05-19T12:22:14;19.20;88.70
26575;DHT22;67165;50.256;10.978;2023-05-19T12:24:40;19.10;86.90
26575;DHT22;67165;50.256;10.978;2023-05-19T12:27:22;19.20;89.70
26575;DHT22;67165;50.256;10.978;2023-05-19T12:29:49;19.10;88.30
26575;DHT22;67165;50.256;10.978;2023-05-19T12:32:24;19.20;88.10
26575;DHT22;67165;50.256;10.978;2023-05-19T12:34:51;19.30;87.10
26575;DHT22;67165;50.256;10.978;2023-05-19T12:37:17;19.30;87.50
26575;DHT22;67165;50.256;10.978;2023-05-19T12:39:44;19.40;88.30
26575;DHT22;67165;50.256;10.978;2023-05-19T12:42:12;19.60;88.20
26575;DHT22;67165;50.256;10.978;2023-05-19T12:44:48;19.60;89.20
26575;DHT22;67165;50.256;10.978;2023-05-19T12:47:17;19.40;88.30
26575;DHT22;67165;50.256;10.978;2023-05-19T12:52:25;19.70;89.60
26575;DHT22;67165;50.256;10.978;2023-05-19T12:55:02;19.60;88.80
26575;DHT22;67165;50.256;10.978;2023-05-19T12:57:36;19.40;88.00
26575;DHT22;67165;50.256;10.978;2023-05-19T13:02:33;19.20;89.30
26575;DHT22;67165;50.256;10.978;2023-05-19T13:05:00;19.20;88.80
26575;DHT22;67165;50.256;10.978;2023-05-19T13:07:26;19.00;88.40
26575;DHT22;67165;50.256;10.978;2023-05-19T13:09:52;18.80;89.10
26575;DHT22;67165;50.256;10.978;2023-05-19T13:12:17;18.70;89.60
26575;DHT22;67165;50.256;10.978;2023-05-19T13:14:44;18.60;89.10
26575;DHT22;67165;50.256;10.978;2023-05-19T13:17:10;18.60;89.80
26575;DHT22;67165;50.256;10.978;2023-05-19T13:19:36;18.90;90.10
26575;DHT22;67165;50.256;10.978;2023-05-19T13:22:01;19.00;89.10
26575;DHT22;67165;50.256;10.978;2023-05-19T13:24:28;19.20;89.10
26575;DHT22;67165;50.256;10.978;2023-05-19T13:26:54;19.60;89.90
26575;DHT22;67165;50.256;10.978;2023-05-19T13:29:19;20.00;89.40
26575;DHT22;67165;50.256;10.978;2023-05-19T13:31:45;20.30;87.50
26575;DHT22;67165;50.256;10.978;2023-05-19T13:34:10;20.20;86.50
26575;DHT22;67165;50.256;10.978;2023-05-19T13:36:36;20.30;86.40
26575;DHT22;67165;50.256;10.978;2023-05-19T13:39:03;20.00;86.30
26575;DHT22;67165;50.256;10.978;2023-05-19T13:41:29;20.00;87.10
26575;DHT22;67165;50.256;10.978;2023-05-19T13:43:57;19.90;88.00
26575;DHT22;67165;50.256;10.978;2023-05-19T13:46:26;20.00;88.60
26575;DHT22;67165;50.256;10.978;2023-05-19T13:48:51;19.90;87.00
26575;DHT22;67165;50.256;10.978;2023-05-19T13:51:17;19.60;87.30
26575;DHT22;67165;50.256;10.978;2023-05-19T13:53:42;19.40;87.80
26575;DHT22;67165;50.256;10.978;2023-05-19T13:56:08;19.30;88.60
26575;DHT22;67165;50.256;10.978;2023-05-19T13:58:34;19.50;88.80
26575;DHT22;67165;50.256;10.978;2023-05-19T14:01:00;19.60;88.40
26575;DHT22;67165;50.256;10.978;2023-05-19T14:03:25;19.70;88.90
26575;DHT22;67165;50.256;10.978;2023-05-19T14:05:51;19.80;88.20
26575;DHT22;67165;50.256;10.978;2023-05-19T14:08:17;19.70;87.40
26575;DHT22;67165;50.256;10.978;2023-05-19T14:10:45;19.60;88.50
26575;DHT22;67165;50.256;10.978;2023-05-19T14:13:11;19.40;88.20
26575;DHT22;67165;50.256;10.978;2023-05-19T14:15:37;19.60;89.00
26575;DHT22;67165;50.256;10.978;2023-05-19T14:18:03;19.80;89.20
26575;DHT22;67165;50.256;10.978;2023-05-19T14:20:29;19.70;89.00
26575;DHT22;67165;50.256;10.978;2023-05-19T14:22:55;19.90;89.10
26575;DHT22;67165;50.256;10.978;2023-05-19T14:25:21;20.10;88.00
26575;DHT22;67165;50.256;10.978;2023-05-19T14:27:46;20.00;90.20
26575;DHT22;67165;50.256;10.978;2023-05-19T14:30:12;19.90;87.20
26575;DHT22;67165;50.256;10.978;2023-05-19T14:32:38;19.50;88.40
26575;DHT22;67165;50.256;10.978;2023-05-19T14:35:04;19.40;90.00
26575;DHT22;67165;50.256;10.978;2023-05-19T14:37:30;19.40;89.40
26575;DHT22;67165;50.256;10.978;2023-05-19T14:39:57;19.40;90.20
26575;DHT22;67165;50.256;10.978;2023-05-19T14:42:23;19.50;90.30
26575;DHT22;67165;50.256;10.978;2023-05-19T14:44:49;19.80;89.50
26575;DHT22;67165;50.256;10.978;2023-05-19T14:47:14;19.90;90.70
26575;DHT22;67165;50.256;10.978;2023-05-19T14:49:40;19.60;89.90
26575;DHT22;67165;50.256;10.978;2023-05-19T14:52:06;19.30;90.50
26575;DHT22;67165;50.256;10.978;2023-05-19T14:54:32;19.10;91.60
26575;DHT22;67165;50.256;10.978;2023-05-19T14:56:58;19.10;91.20
26575;DHT22;67165;50.256;10.978;2023-05-19T14:59:24;19.20;91.60
26575;DHT22;67165;50.256;10.978;2023-05-19T15:01:50;19.50;91.90
26575;DHT22;67165;50.256;10.978;2023-05-19T15:04:15;19.90;91.50
26575;DHT22;67165;50.256;10.978;2023-05-19T15:06:41;20.00;90.80
26575;DHT22;67165;50.256;10.978;2023-05-19T15:09:06;19.90;89.70
26575;DHT22;67165;50.256;10.978;2023-05-19T15:11:32;20.00;89.50
26575;DHT22;67165;50.256;10.978;2023-05-19T15:13:58;19.90;90.30
26575;DHT22;67165;50.256;10.978;2023-05-19T15:16:23;19.70;91.20
26575;DHT22;67165;50.256;10.978;2023-05-19T15:18:49;19.50;91.00
26575;DHT22;67165;50.256;10.978;2023-05-19T15:21:18;19.50;91.00
26575;DHT22;67165;50.256;10.978;2023-05-19T15:23:44;19.60;92.20
26575;DHT22;67165;50.256;10.978;2023-05-19T15:26:10;19.30;91.40
26575;DHT22;67165;50.256;10.978;2023-05-19T15:28:35;19.40;92.40
26575;DHT22;67165;50.256;10.978;2023-05-19T15:31:01;19.60;92.30
26575;DHT22;67165;50.256;10.978;2023-05-19T15:33:27;19.20;92.60
26575;DHT22;67165;50.256;10.978;2023-05-19T15:35:52;19.20;92.70
26575;DHT22;67165;50.256;10.978;2023-05-19T15:38:18;19.30;92.10
26575;DHT22;67165;50.256;10.978;2023-05-19T15:40:44;19.30;92.80
26575;DHT22;67165;50.256;10.978;2023-05-19T15:43:11;19.30;92.80
26575;DHT22;67165;50.256;10.978;2023-05-19T15:45:36;19.30;92.60
26575;DHT22;67165;50.256;10.978;2023-05-19T15:48:02;19.30;93.10
26575;DHT22;67165;50.256;10.978;2023-05-19T15:50:28;19.10;93.60
26575;DHT22;67165;50.256;10.978;2023-05-19T15:52:53;18.90;94.00